createdAt,value
2023-02-01T00:00:45.163Z,4.88
2023-02-01T00:06:04.822Z,4.90
2023-02-01T00:11:12.815Z,4.91
2023-02-01T00:16:20.774Z,4.92
2023-02-01T00:21:27.918Z,4.91
2023-02-01T00:26:36.506Z,4.92
2023-02-01T00:31:43.487Z,4.93
2023-02-01T00:36:50.869Z,4.94
2023-02-01T00:41:57.961Z,4.94
2023-02-01T00:47:04.983Z,4.95
2023-02-01T00:52:12.433Z,4.96
2023-02-01T00:57:25.799Z,4.96
2023-02-01T01:02:33.307Z,4.96
2023-02-01T01:07:42.402Z,4.96
2023-02-01T01:12:49.482Z,4.95
2023-02-01T01:17:56.828Z,4.96
2023-02-01T01:23:04.421Z,4.96
2023-02-01T01:28:11.666Z,4.97
2023-02-01T01:33:19.043Z,4.98
2023-02-01T01:38:26.283Z,4.98
2023-02-01T01:43:47.021Z,4.98
2023-02-01T01:48:57.308Z,5.00
2023-02-01T01:54:06.521Z,5.00
2023-02-01T01:59:14.515Z,4.99
2023-02-01T02:04:22.219Z,5.01
2023-02-01T02:09:29.443Z,5.01
2023-02-01T02:14:36.909Z,5.01
2023-02-01T02:19:52.840Z,5.01
2023-02-01T02:25:08.340Z,5.05
2023-02-01T02:30:35.797Z,5.03
2023-02-01T02:35:48.904Z,5.05
2023-02-01T02:41:02.668Z,5.03
2023-02-01T02:46:32.363Z,5.03
2023-02-01T02:52:00.540Z,5.05
2023-02-01T02:57:28.223Z,5.05
2023-02-01T03:02:53.632Z,5.04
2023-02-01T03:08:04.994Z,5.05
2023-02-01T03:13:15.782Z,5.05
2023-02-01T03:18:27.341Z,5.06
2023-02-01T03:23:37.107Z,5.05
2023-02-01T03:28:46.199Z,5.07
2023-02-01T03:33:53.721Z,5.05
2023-02-01T03:39:05.080Z,5.05
2023-02-01T03:44:17.154Z,5.07
2023-02-01T03:49:26.582Z,5.06
2023-02-01T03:54:35.201Z,5.06
2023-02-01T03:59:43.602Z,5.06
2023-02-01T04:04:51.021Z,5.07
2023-02-01T04:09:58.402Z,5.07
2023-02-01T04:15:06.041Z,5.08
2023-02-01T04:20:14.690Z,5.06
2023-02-01T04:25:22.281Z,5.07
2023-02-01T04:30:30.760Z,5.06
2023-02-01T04:35:38.400Z,5.07
2023-02-01T04:40:45.802Z,5.07
2023-02-01T04:45:53.647Z,5.08
2023-02-01T04:51:00.921Z,5.07
2023-02-01T04:56:09.925Z,5.08
2023-02-01T05:01:17.379Z,5.08
2023-02-01T05:06:24.627Z,5.09
2023-02-01T05:11:49.423Z,5.08
2023-02-01T05:16:57.081Z,5.07
2023-02-01T05:22:04.541Z,5.08
2023-02-01T05:27:12.133Z,5.10
2023-02-01T05:32:22.517Z,5.09
2023-02-01T05:37:30.943Z,5.10
2023-02-01T05:42:38.396Z,5.09
2023-02-01T05:47:46.001Z,5.09
2023-02-01T05:52:53.420Z,5.10
2023-02-01T05:58:00.921Z,5.08
2023-02-01T06:03:08.522Z,5.08
2023-02-01T06:08:16.381Z,5.08
2023-02-01T06:13:23.862Z,5.10
2023-02-01T06:18:31.915Z,5.09
2023-02-01T06:23:39.523Z,5.10
2023-02-01T06:28:46.953Z,5.10
2023-02-01T06:33:55.009Z,5.10
2023-02-01T06:39:02.501Z,5.10
2023-02-01T06:44:09.921Z,5.10
2023-02-01T06:49:17.292Z,5.11
2023-02-01T06:54:24.583Z,5.10
2023-02-01T06:59:31.892Z,5.11
2023-02-01T07:04:39.234Z,5.11
2023-02-01T07:09:46.545Z,5.12
2023-02-01T07:14:54.043Z,5.13
2023-02-01T07:20:02.864Z,5.13
2023-02-01T07:25:10.781Z,5.13
2023-02-01T07:30:18.111Z,5.13
2023-02-01T07:35:25.722Z,5.12
2023-02-01T07:40:32.941Z,5.13
2023-02-01T07:45:40.343Z,5.13
2023-02-01T07:50:47.782Z,5.13
2023-02-01T07:55:54.823Z,5.13
2023-02-01T08:01:20.363Z,5.12
2023-02-01T08:06:28.460Z,5.12
2023-02-01T08:11:35.581Z,5.12
2023-02-01T08:16:42.998Z,5.13
2023-02-01T08:21:58.897Z,5.13
2023-02-01T08:27:25.411Z,5.13
2023-02-01T08:32:32.667Z,5.14
2023-02-01T08:37:40.190Z,5.15
2023-02-01T08:42:54.041Z,5.15
2023-02-01T08:48:01.932Z,5.16
2023-02-01T08:53:09.265Z,5.15
2023-02-01T08:58:18.466Z,5.15
2023-02-01T09:03:25.424Z,5.16
2023-02-01T09:08:32.835Z,5.15
2023-02-01T09:13:40.032Z,5.16
2023-02-01T09:18:56.003Z,5.16
2023-02-01T09:24:15.040Z,5.20
2023-02-01T09:29:22.282Z,5.19
2023-02-01T09:34:29.634Z,5.18
2023-02-01T09:39:36.923Z,5.17
2023-02-01T09:44:58.647Z,5.18
2023-02-01T09:50:07.440Z,5.20
2023-02-01T09:55:18.181Z,5.20
2023-02-01T10:00:28.445Z,5.21
2023-02-01T10:05:54.784Z,5.20
2023-02-01T10:11:05.641Z,5.22
2023-02-01T10:16:20.508Z,5.23
2023-02-01T10:21:43.042Z,5.23
2023-02-01T10:26:52.663Z,5.22
2023-02-01T10:32:00.524Z,5.21
2023-02-01T10:37:20.515Z,5.20
2023-02-01T10:42:29.242Z,5.23
2023-02-01T10:47:36.902Z,5.22
2023-02-01T10:52:46.883Z,5.22
2023-02-01T10:57:59.536Z,5.23
2023-02-01T11:03:22.581Z,5.24
2023-02-01T11:08:30.187Z,5.25
2023-02-01T11:13:40.806Z,5.19
2023-02-01T11:18:48.282Z,5.22
2023-02-01T11:23:56.085Z,5.18
2023-02-01T11:29:05.790Z,5.19
2023-02-01T11:34:15.880Z,5.20
2023-02-01T11:39:26.984Z,5.19
2023-02-01T11:44:36.384Z,5.20
2023-02-01T11:49:44.217Z,5.20
2023-02-01T11:55:01.706Z,5.18
2023-02-01T12:00:16.939Z,5.18
2023-02-01T12:05:29.180Z,5.19
2023-02-01T12:10:41.522Z,5.19
2023-02-01T12:15:56.081Z,5.18
2023-02-01T12:21:07.246Z,5.19
2023-02-01T12:26:26.266Z,5.19
2023-02-01T12:31:46.012Z,5.18
2023-02-01T12:36:59.184Z,5.21
2023-02-01T12:42:12.744Z,5.19
2023-02-01T12:47:25.662Z,5.18
2023-02-01T12:52:36.823Z,5.18
2023-02-01T12:57:46.487Z,5.16
2023-02-01T13:02:57.941Z,5.15
2023-02-01T13:08:09.284Z,5.17
2023-02-01T13:13:19.927Z,5.17
2023-02-01T13:18:29.546Z,5.17
2023-02-01T13:23:38.382Z,5.18
2023-02-01T13:28:47.417Z,5.17
2023-02-01T13:34:04.393Z,5.17
2023-02-01T13:39:31.221Z,5.17
2023-02-01T13:44:42.001Z,5.17
2023-02-01T13:49:49.451Z,5.16
2023-02-01T13:55:06.521Z,5.15
2023-02-01T14:00:26.125Z,5.15
2023-02-01T14:05:50.468Z,5.16
2023-02-01T14:10:59.633Z,5.15
2023-02-01T14:16:17.840Z,5.12
2023-02-01T14:21:27.282Z,5.14
2023-02-01T14:26:46.683Z,5.14
2023-02-01T14:32:14.151Z,5.14
2023-02-01T14:37:29.953Z,5.14
2023-02-01T14:42:41.418Z,5.15
2023-02-01T14:47:49.766Z,5.13
2023-02-01T14:53:07.641Z,5.14
2023-02-01T14:58:21.187Z,5.16
2023-02-01T15:03:40.182Z,5.19
2023-02-01T15:08:48.081Z,5.22
2023-02-01T15:13:56.903Z,5.23
2023-02-01T15:19:15.850Z,5.27
2023-02-01T15:24:24.727Z,5.27
2023-02-01T15:29:33.902Z,5.28
2023-02-01T15:34:51.644Z,5.31
2023-02-01T15:40:23.411Z,5.34
2023-02-01T15:45:32.305Z,5.40
2023-02-01T15:50:42.541Z,5.40
2023-02-01T15:55:50.830Z,5.46
2023-02-01T16:00:59.422Z,5.51
2023-02-01T16:06:07.611Z,5.53
2023-02-01T16:11:29.098Z,5.55
2023-02-01T16:16:36.821Z,5.58
2023-02-01T16:21:44.602Z,5.60
2023-02-01T16:26:52.214Z,5.61
2023-02-01T16:31:59.689Z,5.61
2023-02-01T16:37:07.928Z,5.64
2023-02-01T16:42:16.582Z,5.66
2023-02-01T16:47:25.003Z,5.70
2023-02-01T16:52:32.165Z,5.73
2023-02-01T16:57:39.502Z,5.74
2023-02-01T17:02:47.183Z,5.75
2023-02-01T17:07:54.761Z,5.78
2023-02-01T17:13:02.087Z,5.79
2023-02-01T17:18:15.587Z,5.80
2023-02-01T17:23:23.564Z,5.82
2023-02-01T17:28:31.322Z,5.83
2023-02-01T17:33:39.182Z,5.86
2023-02-01T17:38:53.595Z,5.86
2023-02-01T17:44:07.870Z,5.91
2023-02-01T17:49:15.242Z,5.92
2023-02-01T17:54:22.802Z,5.96
2023-02-01T17:59:30.299Z,5.96
2023-02-01T18:04:38.222Z,6.01
2023-02-01T18:09:45.725Z,6.05
2023-02-01T18:14:53.330Z,6.09
2023-02-01T18:20:00.745Z,6.09
2023-02-01T18:25:17.235Z,6.20
2023-02-01T18:30:25.362Z,6.23
2023-02-01T18:35:33.842Z,6.26
2023-02-01T18:40:42.022Z,6.26
2023-02-01T18:45:50.126Z,6.33
2023-02-01T18:50:58.265Z,6.32
2023-02-01T18:56:05.681Z,6.35
2023-02-01T19:01:17.174Z,6.35
2023-02-01T19:06:26.722Z,6.37
2023-02-01T19:11:34.035Z,6.38
2023-02-01T19:16:41.521Z,6.39
2023-02-01T19:21:48.802Z,6.40
2023-02-01T19:26:57.194Z,6.40
2023-02-01T19:32:04.990Z,6.41
2023-02-01T19:37:12.710Z,6.40
2023-02-01T19:42:20.046Z,6.40
2023-02-01T19:47:27.784Z,6.44
2023-02-01T19:52:35.483Z,6.43
2023-02-01T19:57:44.182Z,6.41
2023-02-01T20:02:50.746Z,6.39
2023-02-01T20:07:57.850Z,6.42
2023-02-01T20:13:05.174Z,6.43
2023-02-01T20:18:13.024Z,6.38
2023-02-01T20:23:21.334Z,6.36
2023-02-01T20:28:29.655Z,6.38
2023-02-01T20:33:36.665Z,6.37
2023-02-01T20:38:44.021Z,6.38
2023-02-01T20:43:51.267Z,6.39
2023-02-01T20:48:58.666Z,6.38
2023-02-01T20:54:06.333Z,6.39
2023-02-01T20:59:15.123Z,6.40
2023-02-01T21:04:23.796Z,6.39
2023-02-01T21:09:31.841Z,6.37
2023-02-01T21:14:39.259Z,6.38
2023-02-01T21:19:46.641Z,6.38
2023-02-01T21:24:54.045Z,6.38
2023-02-01T21:30:01.428Z,6.39
2023-02-01T21:35:09.302Z,6.39
2023-02-01T21:40:16.725Z,6.39
2023-02-01T21:45:24.416Z,6.40
2023-02-01T21:50:32.002Z,6.41
2023-02-01T21:55:39.203Z,6.41
2023-02-01T22:00:47.516Z,6.41
2023-02-01T22:05:55.203Z,6.40
2023-02-01T22:11:02.579Z,6.41
2023-02-01T22:16:10.434Z,6.42
2023-02-01T22:21:17.959Z,6.42
2023-02-01T22:26:25.576Z,6.41
2023-02-01T22:31:33.161Z,6.40
2023-02-01T22:36:40.565Z,6.42
2023-02-01T22:41:47.753Z,6.44
2023-02-01T22:46:55.129Z,6.42
2023-02-01T22:52:02.546Z,6.41
2023-02-01T22:57:09.976Z,6.42
2023-02-01T23:02:17.321Z,6.43
2023-02-01T23:07:25.546Z,6.43
2023-02-01T23:12:32.846Z,6.43
2023-02-01T23:17:40.708Z,6.43
2023-02-01T23:22:48.587Z,6.42
2023-02-01T23:27:55.626Z,6.40
2023-02-01T23:33:02.962Z,6.42
2023-02-01T23:38:10.141Z,6.45
2023-02-01T23:43:35.464Z,6.45
2023-02-01T23:48:43.284Z,6.45
2023-02-01T23:53:50.442Z,6.44
2023-02-01T23:58:58.022Z,6.45
